sensor_id;sensor_type;location;lat;lon;timestamp;temperature;humidity
4596;DHT22;2310;49.978;8.742;2023-08-20T00:03:03;25.50;99.90
4596;DHT22;2310;49.978;8.742;2023-08-20T00:07:06;25.50;99.90
4596;DHT22;2310;49.978;8.742;2023-08-20T00:11:08;25.60;99.90
4596;DHT22;2310;49.978;8.742;2023-08-20T00:15:10;25.80;99.90
4596;DHT22;2310;49.978;8.742;2023-08-20T00:19:12;25.90;99.90
4596;DHT22;2310;49.978;8.742;2023-08-20T00:23:14;25.80;99.90
4596;DHT22;2310;49.978;8.742;2023-08-20T00:27:16;25.90;99.90
4596;DHT22;2310;49.978;8.742;2023-08-20T00:31:17;26.00;99.90
4596;DHT22;2310;49.978;8.742;2023-08-20T00:35:19;25.90;99.90
4596;DHT22;2310;49.978;8.742;2023-08-20T00:39:20;25.90;99.90
4596;DHT22;2310;49.978;8.742;2023-08-20T00:43:21;26.00;99.90
4596;DHT22;2310;49.978;8.742;2023-08-20T00:47:23;25.90;99.90
4596;DHT22;2310;49.978;8.742;2023-08-20T00:51:24;25.80;99.90
4596;DHT22;2310;49.978;8.742;2023-08-20T00:55:26;25.60;99.90
4596;DHT22;2310;49.978;8.742;2023-08-20T00:59:30;25.70;99.90
4596;DHT22;2310;49.978;8.742;2023-08-20T01:03:31;25.50;99.90
4596;DHT22;2310;49.978;8.742;2023-08-20T01:08:13;25.40;99.90
4596;DHT22;2310;49.978;8.742;2023-08-20T01:12:10;25.20;99.90
4596;DHT22;2310;49.978;8.742;2023-08-20T01:16:11;25.10;99.90
4596;DHT22;2310;49.978;8.742;2023-08-20T01:20:13;25.00;99.90
4596;DHT22;2310;49.978;8.742;2023-08-20T01:24:38;24.90;99.90
4596;DHT22;2310;49.978;8.742;2023-08-20T01:28:37;24.70;99.90
4596;DHT22;2310;49.978;8.742;2023-08-20T01:32:40;24.50;99.90
4596;DHT22;2310;49.978;8.742;2023-08-20T01:36:43;24.40;99.90
4596;DHT22;2310;49.978;8.742;2023-08-20T01:40:44;24.40;99.90
4596;DHT22;2310;49.978;8.742;2023-08-20T01:44:46;24.40;99.90
4596;DHT22;2310;49.978;8.742;2023-08-20T01:48:47;24.40;99.90
4596;DHT22;2310;49.978;8.742;2023-08-20T01:52:48;24.30;99.90
4596;DHT22;2310;49.978;8.742;2023-08-20T01:56:50;24.30;99.90
4596;DHT22;2310;49.978;8.742;2023-08-20T02:00:51;24.30;99.90
4596;DHT22;2310;49.978;8.742;2023-08-20T02:04:53;24.20;99.90
4596;DHT22;2310;49.978;8.742;2023-08-20T02:08:54;24.20;99.90
4596;DHT22;2310;49.978;8.742;2023-08-20T02:12:56;24.10;99.90
4596;DHT22;2310;49.978;8.742;2023-08-20T02:16:57;24.20;99.90
4596;DHT22;2310;49.978;8.742;2023-08-20T02:20:58;24.10;99.90
4596;DHT22;2310;49.978;8.742;2023-08-20T02:25:00;24.10;99.90
4596;DHT22;2310;49.978;8.742;2023-08-20T02:29:01;24.10;99.90
4596;DHT22;2310;49.978;8.742;2023-08-20T02:33:03;24.20;99.90
4596;DHT22;2310;49.978;8.742;2023-08-20T02:37:05;24.30;99.90
4596;DHT22;2310;49.978;8.742;2023-08-20T02:41:06;24.30;99.90
4596;DHT22;2310;49.978;8.742;2023-08-20T02:45:08;24.40;99.90
4596;DHT22;2310;49.978;8.742;2023-08-20T02:49:10;24.50;99.90
4596;DHT22;2310;49.978;8.742;2023-08-20T02:53:11;24.50;99.90
4596;DHT22;2310;49.978;8.742;2023-08-20T02:57:12;24.60;99.90
4596;DHT22;2310;49.978;8.742;2023-08-20T03:01:21;24.50;99.90
4596;DHT22;2310;49.978;8.742;2023-08-20T03:05:21;24.40;99.90
4596;DHT22;2310;49.978;8.742;2023-08-20T03:09:22;24.20;99.90
4596;DHT22;2310;49.978;8.742;2023-08-20T03:13:23;24.20;99.90
4596;DHT22;2310;49.978;8.742;2023-08-20T03:17:25;24.00;99.90
4596;DHT22;2310;49.978;8.742;2023-08-20T03:21:26;24.00;99.90
4596;DHT22;2310;49.978;8.742;2023-08-20T03:25:28;24.00;99.90
4596;DHT22;2310;49.978;8.742;2023-08-20T03:29:29;23.90;99.90
4596;DHT22;2310;49.978;8.742;2023-08-20T03:33:30;23.80;99.90
4596;DHT22;2310;49.978;8.742;2023-08-20T03:37:32;23.80;99.90
4596;DHT22;2310;49.978;8.742;2023-08-20T03:41:33;23.80;99.90
4596;DHT22;2310;49.978;8.742;2023-08-20T03:45:35;23.80;99.90
4596;DHT22;2310;49.978;8.742;2023-08-20T03:49:37;23.80;99.90
4596;DHT22;2310;49.978;8.742;2023-08-20T03:53:38;23.80;99.90
4596;DHT22;2310;49.978;8.742;2023-08-20T03:57:40;23.90;99.90
4596;DHT22;2310;49.978;8.742;2023-08-20T04:01:41;23.90;99.90
4596;DHT22;2310;49.978;8.742;2023-08-20T04:05:42;23.90;99.90
4596;DHT22;2310;49.978;8.742;2023-08-20T04:09:44;23.90;99.90
4596;DHT22;2310;49.978;8.742;2023-08-20T04:13:45;23.80;99.90
4596;DHT22;2310;49.978;8.742;2023-08-20T04:17:46;23.80;99.90
4596;DHT22;2310;49.978;8.742;2023-08-20T04:21:48;23.80;99.90
4596;DHT22;2310;49.978;8.742;2023-08-20T04:25:49;24.20;99.90
4596;DHT22;2310;49.978;8.742;2023-08-20T04:29:51;24.10;99.90
4596;DHT22;2310;49.978;8.742;2023-08-20T04:33:52;24.20;99.90
4596;DHT22;2310;49.978;8.742;2023-08-20T04:37:53;24.20;99.90
4596;DHT22;2310;49.978;8.742;2023-08-20T04:41:55;24.30;99.90
4596;DHT22;2310;49.978;8.742;2023-08-20T04:45:58;24.20;99.90
4596;DHT22;2310;49.978;8.742;2023-08-20T04:51:15;24.10;99.90
4596;DHT22;2310;49.978;8.742;2023-08-20T04:55:16;24.00;99.90
4596;DHT22;2310;49.978;8.742;2023-08-20T04:59:18;24.00;99.90
4596;DHT22;2310;49.978;8.742;2023-08-20T05:03:19;24.10;99.90
4596;DHT22;2310;49.978;8.742;2023-08-20T05:07:20;24.20;99.90
4596;DHT22;2310;49.978;8.742;2023-08-20T05:11:22;24.20;99.90
4596;DHT22;2310;49.978;8.742;2023-08-20T05:15:23;24.40;99.90
4596;DHT22;2310;49.978;8.742;2023-08-20T05:19:25;24.60;99.90
4596;DHT22;2310;49.978;8.742;2023-08-20T05:23:26;24.80;99.90
4596;DHT22;2310;49.978;8.742;2023-08-20T05:27:27;24.90;99.90
4596;DHT22;2310;49.978;8.742;2023-08-20T05:31:29;25.00;99.90
4596;DHT22;2310;49.978;8.742;2023-08-20T05:35:30;25.10;99.90
4596;DHT22;2310;49.978;8.742;2023-08-20T05:39:37;25.20;99.90
4596;DHT22;2310;49.978;8.742;2023-08-20T05:43:39;25.20;99.90
4596;DHT22;2310;49.978;8.742;2023-08-20T05:47:40;25.20;99.90
4596;DHT22;2310;49.978;8.742;2023-08-20T05:51:43;25.20;99.90
4596;DHT22;2310;49.978;8.742;2023-08-20T05:55:45;25.30;99.90
4596;DHT22;2310;49.978;8.742;2023-08-20T05:59:46;25.50;99.90
4596;DHT22;2310;49.978;8.742;2023-08-20T06:03:48;25.60;99.90
4596;DHT22;2310;49.978;8.742;2023-08-20T06:07:49;25.40;99.90
4596;DHT22;2310;49.978;8.742;2023-08-20T06:11:50;25.30;99.90
4596;DHT22;2310;49.978;8.742;2023-08-20T06:15:52;25.20;99.90
4596;DHT22;2310;49.978;8.742;2023-08-20T06:19:54;25.10;99.90
4596;DHT22;2310;49.978;8.742;2023-08-20T06:23:55;24.90;99.90
4596;DHT22;2310;49.978;8.742;2023-08-20T06:27:56;24.90;99.90
4596;DHT22;2310;49.978;8.742;2023-08-20T06:31:58;25.10;99.90
4596;DHT22;2310;49.978;8.742;2023-08-20T06:35:59;25.40;99.90
4596;DHT22;2310;49.978;8.742;2023-08-20T06:40:01;25.50;99.90
4596;DHT22;2310;49.978;8.742;2023-08-20T06:44:03;25.60;99.90
4596;DHT22;2310;49.978;8.742;2023-08-20T06:48:05;25.60;99.90
4596;DHT22;2310;49.978;8.742;2023-08-20T06:52:06;25.40;99.90
4596;DHT22;2310;49.978;8.742;2023-08-20T06:56:08;25.60;99.90
4596;DHT22;2310;49.978;8.742;2023-08-20T07:00:10;25.60;99.90
4596;DHT22;2310;49.978;8.742;2023-08-20T07:04:11;25.60;99.90
4596;DHT22;2310;49.978;8.742;2023-08-20T07:08:13;25.80;99.90
4596;DHT22;2310;49.978;8.742;2023-08-20T07:12:15;26.00;99.90
4596;DHT22;2310;49.978;8.742;2023-08-20T07:16:16;26.00;99.90
4596;DHT22;2310;49.978;8.742;2023-08-20T07:20:17;26.20;99.90
4596;DHT22;2310;49.978;8.742;2023-08-20T07:24:19;26.40;99.90
4596;DHT22;2310;49.978;8.742;2023-08-20T07:28:22;26.60;99.90
4596;DHT22;2310;49.978;8.742;2023-08-20T07:32:31;26.70;99.90
4596;DHT22;2310;49.978;8.742;2023-08-20T07:36:32;27.10;99.90
4596;DHT22;2310;49.978;8.742;2023-08-20T07:40:34;27.10;99.90
4596;DHT22;2310;49.978;8.742;2023-08-20T07:44:36;27.20;99.90
4596;DHT22;2310;49.978;8.742;2023-08-20T07:48:38;27.40;99.90
4596;DHT22;2310;49.978;8.742;2023-08-20T07:52:39;27.60;99.90
4596;DHT22;2310;49.978;8.742;2023-08-20T07:56:41;27.50;99.90
4596;DHT22;2310;49.978;8.742;2023-08-20T08:00:43;27.40;99.90
4596;DHT22;2310;49.978;8.742;2023-08-20T08:04:44;27.40;99.90
4596;DHT22;2310;49.978;8.742;2023-08-20T08:08:47;27.50;99.90
4596;DHT22;2310;49.978;8.742;2023-08-20T08:12:48;27.60;99.90
4596;DHT22;2310;49.978;8.742;2023-08-20T08:16:50;27.70;99.90
4596;DHT22;2310;49.978;8.742;2023-08-20T08:20:51;27.70;99.90
4596;DHT22;2310;49.978;8.742;2023-08-20T08:24:53;27.90;99.90
4596;DHT22;2310;49.978;8.742;2023-08-20T08:28:54;28.20;99.90
4596;DHT22;2310;49.978;8.742;2023-08-20T08:32:55;28.50;99.90
4596;DHT22;2310;49.978;8.742;2023-08-20T08:36:57;28.80;99.90
4596;DHT22;2310;49.978;8.742;2023-08-20T08:41:00;29.10;99.90
4596;DHT22;2310;49.978;8.742;2023-08-20T08:45:02;29.40;99.90
4596;DHT22;2310;49.978;8.742;2023-08-20T08:49:04;29.60;99.90
4596;DHT22;2310;49.978;8.742;2023-08-20T08:53:07;29.90;99.90
4596;DHT22;2310;49.978;8.742;2023-08-20T08:57:09;30.40;99.90
4596;DHT22;2310;49.978;8.742;2023-08-20T09:01:10;30.50;99.90
4596;DHT22;2310;49.978;8.742;2023-08-20T09:05:14;30.50;99.90
4596;DHT22;2310;49.978;8.742;2023-08-20T09:09:19;30.60;99.90
4596;DHT22;2310;49.978;8.742;2023-08-20T09:13:26;30.90;99.90
4596;DHT22;2310;49.978;8.742;2023-08-20T09:17:29;31.40;99.90
4596;DHT22;2310;49.978;8.742;2023-08-20T09:21:31;31.40;99.90
4596;DHT22;2310;49.978;8.742;2023-08-20T09:25:32;31.80;99.90
4596;DHT22;2310;49.978;8.742;2023-08-20T09:29:49;31.60;99.90
4596;DHT22;2310;49.978;8.742;2023-08-20T09:33:53;31.70;99.90
4596;DHT22;2310;49.978;8.742;2023-08-20T09:38:02;31.90;99.50
4596;DHT22;2310;49.978;8.742;2023-08-20T09:42:05;32.10;97.80
4596;DHT22;2310;49.978;8.742;2023-08-20T09:46:09;32.40;99.90
4596;DHT22;2310;49.978;8.742;2023-08-20T09:50:12;32.70;97.60
4596;DHT22;2310;49.978;8.742;2023-08-20T09:54:28;33.00;98.30
4596;DHT22;2310;49.978;8.742;2023-08-20T09:58:30;33.40;87.60
4596;DHT22;2310;49.978;8.742;2023-08-20T10:02:33;33.60;81.50
4596;DHT22;2310;49.978;8.742;2023-08-20T10:06:35;33.40;86.00
4596;DHT22;2310;49.978;8.742;2023-08-20T10:10:38;33.60;90.90
4596;DHT22;2310;49.978;8.742;2023-08-20T10:14:40;34.00;90.00
4596;DHT22;2310;49.978;8.742;2023-08-20T10:18:42;34.30;73.50
4596;DHT22;2310;49.978;8.742;2023-08-20T10:22:44;34.50;69.20
4596;DHT22;2310;49.978;8.742;2023-08-20T10:26:46;35.00;68.60
4596;DHT22;2310;49.978;8.742;2023-08-20T10:31:07;35.10;63.30
4596;DHT22;2310;49.978;8.742;2023-08-20T10:35:09;35.00;56.60
4596;DHT22;2310;49.978;8.742;2023-08-20T10:39:19;35.10;54.80
4596;DHT22;2310;49.978;8.742;2023-08-20T10:43:29;34.70;55.30
4596;DHT22;2310;49.978;8.742;2023-08-20T10:47:47;35.30;59.50
4596;DHT22;2310;49.978;8.742;2023-08-20T10:51:49;35.10;58.00
4596;DHT22;2310;49.978;8.742;2023-08-20T10:55:51;34.90;60.60
4596;DHT22;2310;49.978;8.742;2023-08-20T10:59:57;35.00;60.00
4596;DHT22;2310;49.978;8.742;2023-08-20T11:04:00;35.30;59.70
4596;DHT22;2310;49.978;8.742;2023-08-20T11:08:04;35.40;57.50
4596;DHT22;2310;49.978;8.742;2023-08-20T11:12:07;34.90;57.20
4596;DHT22;2310;49.978;8.742;2023-08-20T11:16:09;35.20;60.00
4596;DHT22;2310;49.978;8.742;2023-08-20T11:20:13;35.30;58.80
4596;DHT22;2310;49.978;8.742;2023-08-20T11:24:16;35.20;60.40
4596;DHT22;2310;49.978;8.742;2023-08-20T11:28:17;35.30;56.80
4596;DHT22;2310;49.978;8.742;2023-08-20T11:32:19;35.70;56.00
4596;DHT22;2310;49.978;8.742;2023-08-20T11:36:20;35.50;56.20
4596;DHT22;2310;49.978;8.742;2023-08-20T11:40:22;36.20;55.50
4596;DHT22;2310;49.978;8.742;2023-08-20T11:44:24;36.30;53.40
4596;DHT22;2310;49.978;8.742;2023-08-20T11:48:27;36.50;53.10
4596;DHT22;2310;49.978;8.742;2023-08-20T11:52:31;36.70;55.30
4596;DHT22;2310;49.978;8.742;2023-08-20T11:56:33;37.00;53.00
4596;DHT22;2310;49.978;8.742;2023-08-20T12:00:35;36.80;52.20
4596;DHT22;2310;49.978;8.742;2023-08-20T12:04:36;36.90;50.70
4596;DHT22;2310;49.978;8.742;2023-08-20T12:08:38;36.50;50.90
4596;DHT22;2310;49.978;8.742;2023-08-20T12:12:39;36.30;50.80
4596;DHT22;2310;49.978;8.742;2023-08-20T12:16:41;35.90;50.10
4596;DHT22;2310;49.978;8.742;2023-08-20T12:20:42;36.30;52.10
4596;DHT22;2310;49.978;8.742;2023-08-20T12:24:43;36.30;49.60
4596;DHT22;2310;49.978;8.742;2023-08-20T12:28:45;36.60;50.20
4596;DHT22;2310;49.978;8.742;2023-08-20T12:32:46;36.30;50.00
4596;DHT22;2310;49.978;8.742;2023-08-20T12:36:48;36.30;51.50
4596;DHT22;2310;49.978;8.742;2023-08-20T12:40:50;36.30;48.30
4596;DHT22;2310;49.978;8.742;2023-08-20T12:44:51;36.60;47.40
4596;DHT22;2310;49.978;8.742;2023-08-20T12:48:52;36.40;50.20
4596;DHT22;2310;49.978;8.742;2023-08-20T12:52:54;36.50;50.20
4596;DHT22;2310;49.978;8.742;2023-08-20T12:56:55;36.30;48.00
4596;DHT22;2310;49.978;8.742;2023-08-20T13:00:56;36.10;49.00
4596;DHT22;2310;49.978;8.742;2023-08-20T13:04:58;36.60;49.50
4596;DHT22;2310;49.978;8.742;2023-08-20T13:09:00;36.40;48.20
4596;DHT22;2310;49.978;8.742;2023-08-20T13:13:02;36.20;47.90
4596;DHT22;2310;49.978;8.742;2023-08-20T13:17:03;36.20;46.70
4596;DHT22;2310;49.978;8.742;2023-08-20T13:21:05;36.30;46.40
4596;DHT22;2310;49.978;8.742;2023-08-20T13:25:07;36.50;45.10
4596;DHT22;2310;49.978;8.742;2023-08-20T13:29:09;36.50;46.90
4596;DHT22;2310;49.978;8.742;2023-08-20T13:33:15;36.30;45.70
4596;DHT22;2310;49.978;8.742;2023-08-20T13:37:16;36.30;46.50
4596;DHT22;2310;49.978;8.742;2023-08-20T13:41:18;36.10;46.10
4596;DHT22;2310;49.978;8.742;2023-08-20T13:45:20;35.90;46.20
4596;DHT22;2310;49.978;8.742;2023-08-20T13:49:21;35.90;46.30
4596;DHT22;2310;49.978;8.742;2023-08-20T13:53:22;35.50;47.90
4596;DHT22;2310;49.978;8.742;2023-08-20T13:57:24;35.40;48.40
4596;DHT22;2310;49.978;8.742;2023-08-20T14:01:25;35.30;47.20
4596;DHT22;2310;49.978;8.742;2023-08-20T14:05:27;35.10;47.10
4596;DHT22;2310;49.978;8.742;2023-08-20T14:09:30;35.20;48.70
4596;DHT22;2310;49.978;8.742;2023-08-20T14:13:31;35.30;48.20
4596;DHT22;2310;49.978;8.742;2023-08-20T14:17:33;35.50;48.40
4596;DHT22;2310;49.978;8.742;2023-08-20T14:21:34;35.50;48.80
4596;DHT22;2310;49.978;8.742;2023-08-20T14:25:36;35.30;47.30
4596;DHT22;2310;49.978;8.742;2023-08-20T14:29:37;35.40;47.50
4596;DHT22;2310;49.978;8.742;2023-08-20T14:33:39;35.40;47.70
4596;DHT22;2310;49.978;8.742;2023-08-20T14:37:41;35.50;49.10
4596;DHT22;2310;49.978;8.742;2023-08-20T14:41:42;35.70;46.80
4596;DHT22;2310;49.978;8.742;2023-08-20T14:45:45;35.50;45.60
4596;DHT22;2310;49.978;8.742;2023-08-20T14:49:46;35.70;46.30
4596;DHT22;2310;49.978;8.742;2023-08-20T14:53:47;35.80;46.50
4596;DHT22;2310;49.978;8.742;2023-08-20T14:57:49;35.50;46.50
4596;DHT22;2310;49.978;8.742;2023-08-20T15:01:52;35.70;46.70
4596;DHT22;2310;49.978;8.742;2023-08-20T15:05:53;35.70;47.10
4596;DHT22;2310;49.978;8.742;2023-08-20T15:09:55;35.50;46.20
4596;DHT22;2310;49.978;8.742;2023-08-20T15:13:56;35.40;47.40
4596;DHT22;2310;49.978;8.742;2023-08-20T15:17:57;35.50;47.10
4596;DHT22;2310;49.978;8.742;2023-08-20T15:21:59;35.50;47.70
4596;DHT22;2310;49.978;8.742;2023-08-20T15:26:01;35.30;47.10
4596;DHT22;2310;49.978;8.742;2023-08-20T15:30:03;35.30;46.20
4596;DHT22;2310;49.978;8.742;2023-08-20T15:34:05;35.40;46.40
4596;DHT22;2310;49.978;8.742;2023-08-20T15:38:06;35.10;47.60
4596;DHT22;2310;49.978;8.742;2023-08-20T15:42:08;35.00;47.40
4596;DHT22;2310;49.978;8.742;2023-08-20T15:46:09;35.10;46.80
4596;DHT22;2310;49.978;8.742;2023-08-20T15:50:11;35.20;47.60
4596;DHT22;2310;49.978;8.742;2023-08-20T15:54:12;35.20;47.40
4596;DHT22;2310;49.978;8.742;2023-08-20T15:58:13;35.20;48.60
4596;DHT22;2310;49.978;8.742;2023-08-20T16:02:15;35.00;47.00
4596;DHT22;2310;49.978;8.742;2023-08-20T16:06:16;34.70;46.80
4596;DHT22;2310;49.978;8.742;2023-08-20T16:10:17;34.50;47.70
4596;DHT22;2310;49.978;8.742;2023-08-20T16:14:19;34.70;47.40
4596;DHT22;2310;49.978;8.742;2023-08-20T16:18:21;34.40;47.90
4596;DHT22;2310;49.978;8.742;2023-08-20T16:22:23;34.10;47.70
4596;DHT22;2310;49.978;8.742;2023-08-20T16:26:24;34.10;49.20
4596;DHT22;2310;49.978;8.742;2023-08-20T16:30:25;34.00;49.00
4596;DHT22;2310;49.978;8.742;2023-08-20T16:34:27;34.00;49.10
4596;DHT22;2310;49.978;8.742;2023-08-20T16:38:29;34.10;49.00
4596;DHT22;2310;49.978;8.742;2023-08-20T16:42:31;33.70;49.00
4596;DHT22;2310;49.978;8.742;2023-08-20T16:46:34;34.00;49.00
4596;DHT22;2310;49.978;8.742;2023-08-20T16:50:35;34.10;48.60
4596;DHT22;2310;49.978;8.742;2023-08-20T16:54:38;34.10;49.90
4596;DHT22;2310;49.978;8.742;2023-08-20T16:58:40;34.00;49.40
4596;DHT22;2310;49.978;8.742;2023-08-20T17:02:41;33.90;49.50
4596;DHT22;2310;49.978;8.742;2023-08-20T17:06:43;33.70;49.70
4596;DHT22;2310;49.978;8.742;2023-08-20T17:10:45;33.50;50.00
4596;DHT22;2310;49.978;8.742;2023-08-20T17:14:48;33.50;50.80
4596;DHT22;2310;49.978;8.742;2023-08-20T17:18:50;33.50;52.10
4596;DHT22;2310;49.978;8.742;2023-08-20T17:22:53;33.30;52.80
4596;DHT22;2310;49.978;8.742;2023-08-20T17:26:54;33.10;53.80
4596;DHT22;2310;49.978;8.742;2023-08-20T17:30:55;33.00;54.70
4596;DHT22;2310;49.978;8.742;2023-08-20T17:34:57;33.00;56.00
4596;DHT22;2310;49.978;8.742;2023-08-20T17:38:58;32.90;56.70
4596;DHT22;2310;49.978;8.742;2023-08-20T17:43:02;32.90;57.40
4596;DHT22;2310;49.978;8.742;2023-08-20T17:47:03;32.90;58.30
4596;DHT22;2310;49.978;8.742;2023-08-20T17:51:05;32.90;59.10
4596;DHT22;2310;49.978;8.742;2023-08-20T17:55:07;32.70;59.40
4596;DHT22;2310;49.978;8.742;2023-08-20T17:59:08;32.60;61.10
4596;DHT22;2310;49.978;8.742;2023-08-20T18:03:10;32.50;61.50
4596;DHT22;2310;49.978;8.742;2023-08-20T18:07:11;32.30;63.60
4596;DHT22;2310;49.978;8.742;2023-08-20T18:11:12;32.20;66.30
4596;DHT22;2310;49.978;8.742;2023-08-20T18:15:14;32.10;69.50
4596;DHT22;2310;49.978;8.742;2023-08-20T18:19:15;32.10;67.40
4596;DHT22;2310;49.978;8.742;2023-08-20T18:23:17;32.10;68.10
4596;DHT22;2310;49.978;8.742;2023-08-20T18:27:20;31.90;76.30
4596;DHT22;2310;49.978;8.742;2023-08-20T18:31:21;31.80;94.30
4596;DHT22;2310;49.978;8.742;2023-08-20T18:35:23;31.30;99.90
4596;DHT22;2310;49.978;8.742;2023-08-20T18:39:25;31.00;99.90
4596;DHT22;2310;49.978;8.742;2023-08-20T18:43:29;30.80;99.90
4596;DHT22;2310;49.978;8.742;2023-08-20T18:47:30;30.40;99.90
4596;DHT22;2310;49.978;8.742;2023-08-20T18:51:32;30.40;99.90
4596;DHT22;2310;49.978;8.742;2023-08-20T18:55:33;30.20;99.90
4596;DHT22;2310;49.978;8.742;2023-08-20T18:59:35;30.10;99.90
4596;DHT22;2310;49.978;8.742;2023-08-20T19:03:36;30.00;99.90
4596;DHT22;2310;49.978;8.742;2023-08-20T19:07:37;30.00;99.90
4596;DHT22;2310;49.978;8.742;2023-08-20T19:11:41;29.80;99.90
4596;DHT22;2310;49.978;8.742;2023-08-20T19:15:46;29.70;99.90
4596;DHT22;2310;49.978;8.742;2023-08-20T19:19:46;29.50;99.90
4596;DHT22;2310;49.978;8.742;2023-08-20T19:23:47;29.40;99.90
4596;DHT22;2310;49.978;8.742;2023-08-20T19:27:50;29.30;99.90
4596;DHT22;2310;49.978;8.742;2023-08-20T19:31:52;29.20;99.90
4596;DHT22;2310;49.978;8.742;2023-08-20T19:35:53;29.20;99.90
4596;DHT22;2310;49.978;8.742;2023-08-20T19:39:54;29.10;99.90
4596;DHT22;2310;49.978;8.742;2023-08-20T19:43:56;29.00;99.90
4596;DHT22;2310;49.978;8.742;2023-08-20T19:47:57;28.90;99.90
4596;DHT22;2310;49.978;8.742;2023-08-20T19:52:00;28.80;99.90
4596;DHT22;2310;49.978;8.742;2023-08-20T19:56:02;28.60;99.90
4596;DHT22;2310;49.978;8.742;2023-08-20T20:00:09;28.50;99.90
4596;DHT22;2310;49.978;8.742;2023-08-20T20:04:13;28.50;99.90
4596;DHT22;2310;49.978;8.742;2023-08-20T20:08:15;28.50;99.90
4596;DHT22;2310;49.978;8.742;2023-08-20T20:12:16;28.50;99.90
4596;DHT22;2310;49.978;8.742;2023-08-20T20:16:18;28.40;99.90
4596;DHT22;2310;49.978;8.742;2023-08-20T20:20:20;28.30;99.90
4596;DHT22;2310;49.978;8.742;2023-08-20T20:24:22;28.20;99.90
4596;DHT22;2310;49.978;8.742;2023-08-20T20:28:23;28.10;99.90
4596;DHT22;2310;49.978;8.742;2023-08-20T20:32:25;28.10;99.90
4596;DHT22;2310;49.978;8.742;2023-08-20T20:36:26;28.00;99.90
4596;DHT22;2310;49.978;8.742;2023-08-20T20:40:27;28.00;99.90
4596;DHT22;2310;49.978;8.742;2023-08-20T20:44:29;28.00;99.90
4596;DHT22;2310;49.978;8.742;2023-08-20T20:48:30;27.90;99.90
4596;DHT22;2310;49.978;8.742;2023-08-20T20:52:31;27.80;99.90
4596;DHT22;2310;49.978;8.742;2023-08-20T20:56:33;27.60;99.90
4596;DHT22;2310;49.978;8.742;2023-08-20T21:00:34;27.70;99.90
4596;DHT22;2310;49.978;8.742;2023-08-20T21:04:35;27.60;99.90
4596;DHT22;2310;49.978;8.742;2023-08-20T21:08:37;27.50;99.90
4596;DHT22;2310;49.978;8.742;2023-08-20T21:12:38;27.50;99.90
4596;DHT22;2310;49.978;8.742;2023-08-20T21:16:40;27.60;99.90
4596;DHT22;2310;49.978;8.742;2023-08-20T21:20:41;27.90;99.90
4596;DHT22;2310;49.978;8.742;2023-08-20T21:24:43;28.10;99.90
4596;DHT22;2310;49.978;8.742;2023-08-20T21:28:44;28.40;99.90
4596;DHT22;2310;49.978;8.742;2023-08-20T21:32:46;28.60;99.90
4596;DHT22;2310;49.978;8.742;2023-08-20T21:36:49;28.70;99.90
4596;DHT22;2310;49.978;8.742;2023-08-20T21:40:50;28.70;99.90
4596;DHT22;2310;49.978;8.742;2023-08-20T21:44:53;28.70;99.90
4596;DHT22;2310;49.978;8.742;2023-08-20T21:48:55;28.50;99.90
4596;DHT22;2310;49.978;8.742;2023-08-20T21:52:56;28.40;99.90
4596;DHT22;2310;49.978;8.742;2023-08-20T21:56:58;28.20;99.90
4596;DHT22;2310;49.978;8.742;2023-08-20T22:00:59;28.00;99.90
4596;DHT22;2310;49.978;8.742;2023-08-20T22:05:16;27.80;99.90
4596;DHT22;2310;49.978;8.742;2023-08-20T22:09:17;27.80;99.90
4596;DHT22;2310;49.978;8.742;2023-08-20T22:13:18;27.60;99.90
4596;DHT22;2310;49.978;8.742;2023-08-20T22:17:20;27.60;99.90
4596;DHT22;2310;49.978;8.742;2023-08-20T22:21:21;27.50;99.90
4596;DHT22;2310;49.978;8.742;2023-08-20T22:25:23;27.60;99.90
4596;DHT22;2310;49.978;8.742;2023-08-20T22:29:25;27.60;99.90
4596;DHT22;2310;49.978;8.742;2023-08-20T22:33:26;27.60;99.90
4596;DHT22;2310;49.978;8.742;2023-08-20T22:37:28;27.40;99.90
4596;DHT22;2310;49.978;8.742;2023-08-20T22:41:29;27.20;99.90
4596;DHT22;2310;49.978;8.742;2023-08-20T22:45:30;27.20;99.90
4596;DHT22;2310;49.978;8.742;2023-08-20T22:49:32;27.10;99.90
4596;DHT22;2310;49.978;8.742;2023-08-20T22:53:33;27.00;99.90
4596;DHT22;2310;49.978;8.742;2023-08-20T22:57:34;26.90;99.90
4596;DHT22;2310;49.978;8.742;2023-08-20T23:01:36;26.80;99.90
4596;DHT22;2310;49.978;8.742;2023-08-20T23:05:37;26.80;99.90
4596;DHT22;2310;49.978;8.742;2023-08-20T23:09:39;26.80;99.90
4596;DHT22;2310;49.978;8.742;2023-08-20T23:13:40;26.80;99.90
4596;DHT22;2310;49.978;8.742;2023-08-20T23:17:42;26.80;99.90
4596;DHT22;2310;49.978;8.742;2023-08-20T23:21:43;26.70;99.90
4596;DHT22;2310;49.978;8.742;2023-08-20T23:25:46;26.70;99.90
4596;DHT22;2310;49.978;8.742;2023-08-20T23:29:48;26.60;99.90
4596;DHT22;2310;49.978;8.742;2023-08-20T23:33:49;26.60;99.90
4596;DHT22;2310;49.978;8.742;2023-08-20T23:37:50;26.50;99.90
4596;DHT22;2310;49.978;8.742;2023-08-20T23:41:52;26.30;99.90
4596;DHT22;2310;49.978;8.742;2023-08-20T23:45:53;26.20;99.90
4596;DHT22;2310;49.978;8.742;2023-08-20T23:49:54;26.20;99.90
4596;DHT22;2310;49.978;8.742;2023-08-20T23:53:56;26.20;99.90
4596;DHT22;2310;49.978;8.742;2023-08-20T23:57:57;26.20;99.90
